Grand Rapids, Canada
Current Conditions -  °F | °C
As of 2:00 AM on Thursday 29 Jan 2015 (Local Time) from CYNE Reporting Station
Light Snow Light Snow  
Wind Chill: -21°   Ceiling: 5500
Heat Index: -4°   Visibility: 9mi
Dew Point: -9°   Wind: 10mph
Humidity: 78%   Direction: 330°NNW
Pressure: 30.33"   Gusts: NA
Location:  53.18°N, 99.28°W
Report Text: CYNE 290800Z AUTO 33009KT 9SM -SN OVC055 M20/M23 A3033 RMK SLP297
Loading
Personal Weather Stations






























Interactive Weather Map New forecast layout! Learn more

10-Day Weather Forecast

Advertisements
Track Severe Weather on mobile